createdAt,value
2023-05-27T00:00:35.478Z,19.24
2023-05-27T00:03:02.048Z,19.24
2023-05-27T00:05:28.613Z,19.23
2023-05-27T00:07:55.158Z,19.22
2023-05-27T00:10:21.711Z,19.22
2023-05-27T00:12:48.224Z,19.23
2023-05-27T00:15:14.884Z,19.24
2023-05-27T00:17:41.416Z,19.25
2023-05-27T00:20:08.291Z,19.27
2023-05-27T00:22:35.254Z,19.28
2023-05-27T00:25:01.912Z,19.26
2023-05-27T00:27:28.401Z,19.25
2023-05-27T00:29:54.942Z,19.24
2023-05-27T00:32:21.521Z,19.23
2023-05-27T00:34:48.113Z,19.24
2023-05-27T00:37:14.876Z,19.24
2023-05-27T00:39:41.425Z,19.24
2023-05-27T00:42:08.102Z,19.24
2023-05-27T00:44:34.662Z,19.23
2023-05-27T00:47:01.533Z,19.21
2023-05-27T00:49:28.452Z,19.19
2023-05-27T00:51:55.098Z,19.20
2023-05-27T00:54:21.955Z,19.21
2023-05-27T00:56:48.478Z,19.20
2023-05-27T00:59:15.193Z,19.20
2023-05-27T01:01:41.871Z,19.19
2023-05-27T01:04:08.532Z,19.17
2023-05-27T01:06:56.392Z,19.16
2023-05-27T01:09:31.461Z,19.13
2023-05-27T01:12:11.944Z,19.10
2023-05-27T01:14:41.266Z,19.09
2023-05-27T01:17:09.390Z,19.09
2023-05-27T01:19:40.130Z,19.07
2023-05-27T01:22:08.265Z,19.05
2023-05-27T01:24:34.790Z,19.03
2023-05-27T01:27:01.312Z,19.01
2023-05-27T01:29:28.771Z,19.00
2023-05-27T01:32:02.212Z,19.00
2023-05-27T01:34:42.654Z,18.98
2023-05-27T01:37:12.293Z,18.94
2023-05-27T01:39:40.257Z,18.92
2023-05-27T01:42:08.638Z,18.91
2023-05-27T01:44:36.279Z,18.89
2023-05-27T01:47:03.246Z,18.89
2023-05-27T01:49:30.840Z,18.87
2023-05-27T01:51:57.505Z,18.84
2023-05-27T01:54:24.072Z,18.78
2023-05-27T01:56:50.748Z,18.76
2023-05-27T01:59:17.388Z,18.75
2023-05-27T02:01:43.990Z,18.71
2023-05-27T02:04:10.527Z,18.67
2023-05-27T02:06:37.374Z,18.62
2023-05-27T02:09:04.419Z,18.58
2023-05-27T02:11:31.001Z,18.54
2023-05-27T02:13:57.633Z,18.52
2023-05-27T02:16:24.209Z,18.48
2023-05-27T02:18:50.838Z,18.43
2023-05-27T02:21:17.481Z,18.37
2023-05-27T02:23:43.982Z,18.32
2023-05-27T02:26:10.526Z,18.28
2023-05-27T02:28:37.025Z,18.25
2023-05-27T02:31:03.569Z,18.25
2023-05-27T02:33:30.104Z,18.26
2023-05-27T02:35:56.592Z,18.26
2023-05-27T02:38:23.098Z,18.25
2023-05-27T02:40:49.650Z,18.23
2023-05-27T02:43:16.140Z,18.20
2023-05-27T02:45:42.751Z,18.19
2023-05-27T02:48:09.325Z,18.19
2023-05-27T02:50:35.963Z,18.20
2023-05-27T02:53:02.488Z,18.20
2023-05-27T02:55:29.006Z,18.19
2023-05-27T02:57:55.481Z,18.18
2023-05-27T03:00:21.983Z,18.19
2023-05-27T03:02:48.694Z,18.20
2023-05-27T03:05:15.328Z,18.22
2023-05-27T03:07:41.849Z,18.23
2023-05-27T03:10:09.028Z,18.22
2023-05-27T03:12:35.560Z,18.22
2023-05-27T03:15:02.163Z,18.23
2023-05-27T03:17:28.642Z,18.23
2023-05-27T03:19:55.157Z,18.23
2023-05-27T03:22:21.826Z,18.24
2023-05-27T03:24:48.342Z,18.23
2023-05-27T03:27:14.886Z,18.24
2023-05-27T03:29:41.634Z,18.25
2023-05-27T03:32:08.443Z,18.27
2023-05-27T03:34:35.022Z,18.30
2023-05-27T03:37:01.525Z,18.33
2023-05-27T03:39:28.069Z,18.34
2023-05-27T03:41:54.699Z,18.35
2023-05-27T03:44:21.225Z,18.37
2023-05-27T03:46:47.831Z,18.40
2023-05-27T03:49:14.399Z,18.39
2023-05-27T03:51:40.888Z,18.39
2023-05-27T03:54:07.437Z,18.37
2023-05-27T03:56:33.937Z,18.34
2023-05-27T03:59:00.524Z,18.31
2023-05-27T04:01:27.060Z,18.30
2023-05-27T04:03:54.078Z,18.29
2023-05-27T04:06:20.646Z,18.28
2023-05-27T04:08:47.162Z,18.29
2023-05-27T04:11:14.036Z,18.30
2023-05-27T04:13:41.311Z,18.31
2023-05-27T04:16:07.922Z,18.32
2023-05-27T04:18:35.143Z,18.33
2023-05-27T04:21:01.635Z,18.36
2023-05-27T04:23:28.168Z,18.36
2023-05-27T04:25:54.682Z,18.34
2023-05-27T04:28:21.186Z,18.34
2023-05-27T04:30:47.719Z,18.35
2023-05-27T04:33:16.550Z,18.32
2023-05-27T04:35:43.203Z,18.32
2023-05-27T04:38:09.706Z,18.34
2023-05-27T04:40:36.187Z,18.35
2023-05-27T04:43:02.738Z,18.35
2023-05-27T04:45:29.273Z,18.37
2023-05-27T04:47:56.025Z,18.39
2023-05-27T04:50:22.574Z,18.44
2023-05-27T04:52:49.087Z,18.50
2023-05-27T04:55:15.634Z,18.52
2023-05-27T04:57:42.368Z,18.52
2023-05-27T05:00:09.759Z,18.54
2023-05-27T05:02:36.330Z,18.54
2023-05-27T05:05:10.484Z,18.55
2023-05-27T05:07:37.366Z,18.58
2023-05-27T05:10:04.074Z,18.64
2023-05-27T05:12:30.593Z,18.66
2023-05-27T05:14:57.116Z,18.70
2023-05-27T05:17:23.744Z,18.73
2023-05-27T05:19:50.323Z,18.78
2023-05-27T05:22:16.958Z,18.86
2023-05-27T05:24:43.478Z,18.91
2023-05-27T05:27:10.150Z,18.97
2023-05-27T05:29:36.724Z,19.01
2023-05-27T05:32:03.836Z,19.10
2023-05-27T05:34:30.470Z,19.20
2023-05-27T05:36:57.147Z,19.29
2023-05-27T05:39:23.692Z,19.40
2023-05-27T05:41:50.316Z,19.49
2023-05-27T05:44:17.482Z,19.59
2023-05-27T05:46:44.203Z,19.68
2023-05-27T05:49:10.815Z,19.75
2023-05-27T05:51:37.335Z,19.80
2023-05-27T05:54:04.090Z,19.88
2023-05-27T05:56:30.739Z,19.96
2023-05-27T05:58:57.242Z,20.01
2023-05-27T06:01:23.747Z,20.05
2023-05-27T06:03:50.428Z,20.11
2023-05-27T06:06:17.041Z,20.21
2023-05-27T06:08:43.547Z,20.33
2023-05-27T06:11:10.103Z,20.43
2023-05-27T06:13:36.638Z,20.53
2023-05-27T06:16:03.412Z,20.62
2023-05-27T06:18:30.009Z,20.67
2023-05-27T06:20:56.690Z,20.72
2023-05-27T06:23:23.205Z,20.75
2023-05-27T06:25:49.740Z,20.82
2023-05-27T06:28:16.315Z,20.85
2023-05-27T06:30:42.893Z,20.86
2023-05-27T06:33:09.703Z,20.86
2023-05-27T06:35:36.268Z,20.84
2023-05-27T06:38:02.963Z,20.82
2023-05-27T06:40:29.472Z,20.82
2023-05-27T06:42:55.990Z,20.86
2023-05-27T06:45:22.745Z,20.93
2023-05-27T06:47:49.382Z,21.00
2023-05-27T06:50:15.899Z,21.08
2023-05-27T06:52:42.458Z,21.16
2023-05-27T06:55:09.636Z,21.20
2023-05-27T06:57:36.197Z,21.15
2023-05-27T07:00:03.437Z,21.14
2023-05-27T07:02:29.980Z,21.14
2023-05-27T07:04:57.278Z,21.12
2023-05-27T07:07:23.796Z,21.12
2023-05-27T07:09:50.341Z,21.12
2023-05-27T07:12:16.860Z,21.13
2023-05-27T07:14:43.397Z,21.14
2023-05-27T07:17:09.891Z,21.17
2023-05-27T07:19:36.389Z,21.28
2023-05-27T07:22:02.943Z,21.41
2023-05-27T07:24:29.491Z,21.54
2023-05-27T07:26:56.041Z,21.65
2023-05-27T07:29:23.079Z,21.76
2023-05-27T07:31:49.711Z,21.85
2023-05-27T07:34:16.270Z,21.96
2023-05-27T07:36:42.802Z,22.08
2023-05-27T07:39:09.332Z,22.16
2023-05-27T07:41:35.876Z,22.25
2023-05-27T07:44:02.379Z,22.34
2023-05-27T07:46:29.128Z,22.42
2023-05-27T07:48:55.678Z,22.51
2023-05-27T07:51:22.174Z,22.60
2023-05-27T07:53:49.281Z,22.68
2023-05-27T07:56:15.923Z,22.75
2023-05-27T07:58:42.425Z,22.82
2023-05-27T08:01:09.017Z,22.91
2023-05-27T08:03:35.643Z,22.99
2023-05-27T08:06:02.208Z,23.04
2023-05-27T08:08:28.687Z,23.11
2023-05-27T08:10:55.243Z,23.17
2023-05-27T08:13:21.788Z,23.24
2023-05-27T08:15:48.341Z,23.32
2023-05-27T08:18:15.035Z,23.41
2023-05-27T08:20:41.694Z,23.49
2023-05-27T08:23:08.424Z,23.59
2023-05-27T08:25:34.992Z,23.67
2023-05-27T08:28:01.484Z,23.72
2023-05-27T08:30:28.742Z,23.77
2023-05-27T08:32:55.863Z,23.82
2023-05-27T08:35:22.512Z,23.87
2023-05-27T08:37:49.031Z,23.91
2023-05-27T08:40:17.373Z,23.96
2023-05-27T08:42:44.285Z,24.01
2023-05-27T08:45:11.748Z,24.06
2023-05-27T08:47:41.779Z,24.15
2023-05-27T08:50:09.275Z,24.23
2023-05-27T08:52:41.643Z,24.29
2023-05-27T08:55:09.002Z,24.33
2023-05-27T08:57:35.994Z,24.38
2023-05-27T09:00:02.811Z,24.44
2023-05-27T09:02:29.456Z,24.50
2023-05-27T09:04:56.694Z,24.57
2023-05-27T09:07:23.943Z,24.65
2023-05-27T09:09:57.786Z,24.60
2023-05-27T09:12:25.569Z,24.57
2023-05-27T09:14:52.813Z,24.65
2023-05-27T09:17:19.427Z,24.77
2023-05-27T09:19:46.562Z,24.88
2023-05-27T09:22:26.201Z,24.93
2023-05-27T09:24:56.192Z,24.98
2023-05-27T09:27:27.087Z,24.96
2023-05-27T09:29:54.056Z,24.92
2023-05-27T09:32:32.288Z,24.91
2023-05-27T09:35:00.217Z,24.95
2023-05-27T09:37:31.241Z,25.00
2023-05-27T09:39:57.841Z,25.05
2023-05-27T09:42:24.355Z,25.11
2023-05-27T09:44:50.874Z,25.21
2023-05-27T09:47:18.411Z,25.24
2023-05-27T09:49:49.839Z,25.23
2023-05-27T09:52:19.012Z,25.19
2023-05-27T09:54:45.783Z,25.20
2023-05-27T09:57:13.155Z,25.18
2023-05-27T09:59:40.077Z,25.13
2023-05-27T10:02:07.878Z,25.13
2023-05-27T10:04:34.407Z,25.16
2023-05-27T10:07:02.371Z,25.27
2023-05-27T10:09:28.881Z,25.42
2023-05-27T10:11:55.595Z,25.57
2023-05-27T10:14:22.303Z,25.70
2023-05-27T10:16:57.385Z,25.85
2023-05-27T10:19:24.110Z,26.00
2023-05-27T10:21:50.628Z,26.12
2023-05-27T10:24:17.164Z,26.20
2023-05-27T10:26:46.188Z,26.27
2023-05-27T10:29:14.562Z,26.29
2023-05-27T10:31:54.152Z,26.30
2023-05-27T10:34:21.013Z,26.30
2023-05-27T10:36:47.975Z,26.23
2023-05-27T10:39:15.270Z,26.11
2023-05-27T10:41:49.597Z,26.01
2023-05-27T10:44:27.250Z,25.96
2023-05-27T10:47:03.489Z,25.97
2023-05-27T10:49:33.628Z,25.97
2023-05-27T10:52:00.508Z,25.97
2023-05-27T10:54:29.632Z,25.96
2023-05-27T10:56:57.314Z,25.96
2023-05-27T10:59:24.282Z,25.88
2023-05-27T11:01:55.060Z,25.75
2023-05-27T11:04:21.883Z,25.68
2023-05-27T11:07:00.754Z,25.62
2023-05-27T11:09:29.089Z,25.59
2023-05-27T11:12:03.123Z,25.57
2023-05-27T11:14:29.630Z,25.51
2023-05-27T11:16:56.175Z,25.46
2023-05-27T11:19:22.723Z,25.37
2023-05-27T11:21:49.802Z,25.33
2023-05-27T11:24:17.855Z,25.31
2023-05-27T11:26:45.908Z,25.29
2023-05-27T11:29:12.781Z,25.28
2023-05-27T11:31:39.676Z,25.27
2023-05-27T11:34:06.204Z,25.22
2023-05-27T11:36:32.859Z,25.14
2023-05-27T11:39:01.495Z,25.05
2023-05-27T11:41:30.047Z,24.96
2023-05-27T11:44:06.364Z,24.89
2023-05-27T11:46:44.352Z,24.83
2023-05-27T11:49:12.471Z,24.79
2023-05-27T11:51:50.282Z,24.75
2023-05-27T11:54:22.966Z,24.73
2023-05-27T11:56:51.098Z,24.70
2023-05-27T11:59:19.209Z,24.69
2023-05-27T12:01:46.176Z,24.70
2023-05-27T12:04:13.111Z,24.73
2023-05-27T12:06:40.168Z,24.78
2023-05-27T12:09:06.944Z,24.82
2023-05-27T12:11:34.333Z,24.79
2023-05-27T12:14:02.210Z,24.73
2023-05-27T12:16:28.886Z,24.63
2023-05-27T12:18:55.697Z,24.58
2023-05-27T12:21:22.331Z,24.56
2023-05-27T12:23:49.245Z,24.57
2023-05-27T12:26:16.906Z,24.63
2023-05-27T12:28:44.394Z,24.78
2023-05-27T12:31:10.993Z,24.97
2023-05-27T12:33:37.632Z,25.14
2023-05-27T12:36:04.656Z,25.33
2023-05-27T12:38:31.132Z,25.44
2023-05-27T12:40:57.687Z,25.54
2023-05-27T12:43:24.642Z,25.65
2023-05-27T12:45:51.795Z,25.77
2023-05-27T12:48:18.629Z,25.83
2023-05-27T12:50:45.699Z,25.87
2023-05-27T12:53:12.194Z,25.94
2023-05-27T12:55:38.896Z,26.03
2023-05-27T12:58:05.601Z,26.10
2023-05-27T13:00:32.391Z,26.11
2023-05-27T13:02:58.917Z,26.07
2023-05-27T13:05:25.613Z,26.01
2023-05-27T13:08:05.349Z,25.94
2023-05-27T13:10:32.094Z,25.86
2023-05-27T13:13:00.535Z,25.82
2023-05-27T13:15:27.953Z,25.81
2023-05-27T13:17:54.816Z,25.81
2023-05-27T13:20:23.957Z,25.83
2023-05-27T13:22:50.800Z,25.83
2023-05-27T13:25:17.554Z,25.79
2023-05-27T13:27:44.881Z,25.73
2023-05-27T13:30:15.539Z,25.68
2023-05-27T13:32:43.229Z,25.62
2023-05-27T13:35:10.957Z,25.58
2023-05-27T13:37:38.289Z,25.57
2023-05-27T13:40:05.491Z,25.53
2023-05-27T13:42:32.120Z,25.49
2023-05-27T13:44:58.640Z,25.41
2023-05-27T13:47:25.667Z,25.32
2023-05-27T13:49:52.337Z,25.28
2023-05-27T13:52:18.861Z,25.27
2023-05-27T13:54:45.331Z,25.28
2023-05-27T13:57:11.991Z,25.28
2023-05-27T13:59:38.486Z,25.32
2023-05-27T14:02:05.384Z,25.37
2023-05-27T14:04:32.911Z,25.42
2023-05-27T14:06:59.485Z,25.48
2023-05-27T14:09:26.241Z,25.52
2023-05-27T14:11:52.763Z,25.57
2023-05-27T14:14:19.325Z,25.61
2023-05-27T14:16:45.870Z,25.62
2023-05-27T14:19:12.390Z,25.68
2023-05-27T14:21:38.884Z,25.72
2023-05-27T14:24:05.415Z,25.71
2023-05-27T14:26:32.617Z,25.67
2023-05-27T14:29:00.470Z,25.62
2023-05-27T14:31:26.998Z,25.55
2023-05-27T14:33:53.492Z,25.48
2023-05-27T14:36:20.020Z,25.40
2023-05-27T14:38:46.516Z,25.31
2023-05-27T14:41:13.026Z,25.21
2023-05-27T14:43:39.539Z,25.14
2023-05-27T14:46:06.104Z,25.06
2023-05-27T14:48:32.614Z,24.99
2023-05-27T14:50:59.291Z,24.89
2023-05-27T14:53:25.835Z,24.80
2023-05-27T14:55:52.724Z,24.73
2023-05-27T14:58:19.426Z,24.68
2023-05-27T15:00:46.063Z,24.69
2023-05-27T15:03:12.723Z,24.77
2023-05-27T15:05:39.299Z,24.83
2023-05-27T15:08:05.845Z,24.87
2023-05-27T15:10:32.433Z,24.89
2023-05-27T15:12:58.968Z,24.93
2023-05-27T15:15:25.623Z,24.94
2023-05-27T15:17:52.169Z,24.93
2023-05-27T15:20:19.125Z,24.95
2023-05-27T15:22:46.363Z,25.01
2023-05-27T15:25:12.944Z,25.06
2023-05-27T15:27:39.492Z,25.05
2023-05-27T15:30:07.125Z,25.08
2023-05-27T15:32:33.789Z,25.11
2023-05-27T15:35:00.607Z,25.13
2023-05-27T15:37:27.146Z,25.14
2023-05-27T15:39:54.386Z,25.14
2023-05-27T15:42:22.087Z,25.08
2023-05-27T15:44:48.588Z,25.02
2023-05-27T15:47:15.240Z,24.95
2023-05-27T15:49:41.783Z,24.86
2023-05-27T15:52:08.300Z,24.71
2023-05-27T15:54:34.797Z,24.56
2023-05-27T15:57:01.276Z,24.42
2023-05-27T15:59:27.782Z,24.30
2023-05-27T16:01:54.613Z,24.23
2023-05-27T16:04:21.181Z,24.16
2023-05-27T16:06:47.721Z,24.13
2023-05-27T16:09:14.215Z,24.11
2023-05-27T16:11:40.692Z,24.08
2023-05-27T16:14:07.195Z,24.03
2023-05-27T16:16:34.033Z,23.97
2023-05-27T16:19:00.716Z,23.89
2023-05-27T16:21:27.322Z,23.80
2023-05-27T16:24:03.588Z,23.74
2023-05-27T16:26:33.743Z,23.70
2023-05-27T16:29:00.292Z,23.67
2023-05-27T16:31:26.979Z,23.68
2023-05-27T16:33:53.575Z,23.69
2023-05-27T16:36:20.054Z,23.70
2023-05-27T16:38:46.624Z,23.69
2023-05-27T16:41:13.191Z,23.68
2023-05-27T16:43:39.765Z,23.69
2023-05-27T16:46:06.404Z,23.71
2023-05-27T16:48:32.996Z,23.73
2023-05-27T16:50:59.529Z,23.71
2023-05-27T16:53:26.007Z,23.70
2023-05-27T16:55:52.481Z,23.70
2023-05-27T16:58:18.985Z,23.69
2023-05-27T17:00:56.214Z,23.68
2023-05-27T17:03:22.963Z,23.67
2023-05-27T17:05:49.605Z,23.66
2023-05-27T17:08:16.103Z,23.66
2023-05-27T17:10:42.607Z,23.64
2023-05-27T17:13:09.129Z,23.59
2023-05-27T17:15:35.684Z,23.56
2023-05-27T17:18:02.256Z,23.51
2023-05-27T17:20:28.915Z,23.46
2023-05-27T17:22:55.519Z,23.42
2023-05-27T17:25:22.171Z,23.37
2023-05-27T17:27:48.719Z,23.34
2023-05-27T17:30:16.243Z,23.31
2023-05-27T17:32:42.800Z,23.27
2023-05-27T17:35:09.693Z,23.24
2023-05-27T17:37:36.295Z,23.20
2023-05-27T17:40:02.942Z,23.15
2023-05-27T17:42:29.433Z,23.10
2023-05-27T17:44:56.132Z,23.04
2023-05-27T17:47:22.789Z,22.99
2023-05-27T17:49:49.318Z,22.94
2023-05-27T17:52:21.482Z,22.91
2023-05-27T17:54:48.579Z,22.86
2023-05-27T17:57:15.070Z,22.82
2023-05-27T17:59:41.586Z,22.77
2023-05-27T18:02:08.109Z,22.71
2023-05-27T18:04:34.610Z,22.66
2023-05-27T18:07:01.188Z,22.61
2023-05-27T18:09:27.682Z,22.56
2023-05-27T18:11:54.248Z,22.52
2023-05-27T18:14:20.785Z,22.46
2023-05-27T18:16:47.350Z,22.40
2023-05-27T18:19:13.926Z,22.33
2023-05-27T18:21:40.863Z,22.26
2023-05-27T18:24:07.489Z,22.18
2023-05-27T18:26:33.978Z,22.11
2023-05-27T18:29:00.551Z,22.04
2023-05-27T18:31:27.139Z,21.95
2023-05-27T18:33:53.647Z,21.86
2023-05-27T18:36:20.229Z,21.79
2023-05-27T18:38:46.910Z,21.73
2023-05-27T18:41:13.563Z,21.67
2023-05-27T18:43:40.090Z,21.61
2023-05-27T18:46:06.820Z,21.55
2023-05-27T18:48:33.424Z,21.48
2023-05-27T18:51:00.509Z,21.40
2023-05-27T18:53:27.220Z,21.32
2023-05-27T18:55:54.105Z,21.27
2023-05-27T18:58:20.864Z,21.21
2023-05-27T19:00:47.823Z,21.14
2023-05-27T19:03:14.445Z,21.07
2023-05-27T19:05:41.023Z,21.01
2023-05-27T19:08:07.905Z,20.95
2023-05-27T19:10:34.443Z,20.89
2023-05-27T19:13:03.196Z,20.84
2023-05-27T19:15:31.372Z,20.80
2023-05-27T19:17:57.865Z,20.77
2023-05-27T19:20:24.498Z,20.73
2023-05-27T19:22:51.117Z,20.69
2023-05-27T19:25:17.737Z,20.67
2023-05-27T19:27:44.299Z,20.65
2023-05-27T19:30:11.391Z,20.62
2023-05-27T19:32:37.956Z,20.58
2023-05-27T19:35:05.258Z,20.54
2023-05-27T19:37:31.866Z,20.51
2023-05-27T19:39:58.679Z,20.49
2023-05-27T19:42:25.237Z,20.45
2023-05-27T19:44:51.871Z,20.42
2023-05-27T19:47:18.594Z,20.38
2023-05-27T19:49:45.188Z,20.34
2023-05-27T19:52:11.766Z,20.30
2023-05-27T19:54:38.326Z,20.26
2023-05-27T19:57:05.158Z,20.23
2023-05-27T19:59:31.717Z,20.20
2023-05-27T20:01:58.249Z,20.15
2023-05-27T20:04:24.870Z,20.10
2023-05-27T20:06:51.356Z,20.05
2023-05-27T20:09:17.867Z,20.00
2023-05-27T20:11:44.570Z,19.96
2023-05-27T20:14:11.086Z,19.90
2023-05-27T20:16:37.786Z,19.83
2023-05-27T20:19:04.318Z,19.75
2023-05-27T20:21:30.883Z,19.67
2023-05-27T20:23:59.611Z,19.60
2023-05-27T20:26:27.019Z,19.55
2023-05-27T20:28:53.553Z,19.50
2023-05-27T20:31:20.171Z,19.45
2023-05-27T20:33:46.878Z,19.40
2023-05-27T20:36:15.594Z,19.35
2023-05-27T20:38:42.624Z,19.31
2023-05-27T20:41:09.130Z,19.28
2023-05-27T20:43:36.544Z,19.24
2023-05-27T20:46:03.511Z,19.19
2023-05-27T20:48:30.123Z,19.15
2023-05-27T20:50:56.728Z,19.10
2023-05-27T20:53:23.290Z,19.07
2023-05-27T20:55:50.239Z,19.04
2023-05-27T20:58:16.794Z,19.01
2023-05-27T21:00:43.283Z,18.98
2023-05-27T21:03:09.981Z,18.96
2023-05-27T21:05:36.596Z,18.92
2023-05-27T21:08:03.152Z,18.87
2023-05-27T21:10:29.700Z,18.83
2023-05-27T21:12:56.163Z,18.78
2023-05-27T21:15:22.662Z,18.74
2023-05-27T21:17:49.222Z,18.69
2023-05-27T21:20:15.994Z,18.65
2023-05-27T21:22:42.579Z,18.63
2023-05-27T21:25:10.656Z,18.60
2023-05-27T21:27:37.594Z,18.57
2023-05-27T21:30:06.240Z,18.53
2023-05-27T21:32:32.778Z,18.48
2023-05-27T21:34:59.421Z,18.45
2023-05-27T21:37:25.966Z,18.41
2023-05-27T21:39:52.523Z,18.36
2023-05-27T21:42:19.411Z,18.32
2023-05-27T21:44:45.998Z,18.28
2023-05-27T21:47:12.537Z,18.23
2023-05-27T21:49:39.049Z,18.19
2023-05-27T21:52:05.804Z,18.16
2023-05-27T21:54:32.301Z,18.12
2023-05-27T21:56:58.834Z,18.07
2023-05-27T21:59:25.339Z,18.02
2023-05-27T22:01:51.988Z,17.97
2023-05-27T22:04:21.083Z,17.93
2023-05-27T22:06:47.709Z,17.89
2023-05-27T22:09:14.290Z,17.83
2023-05-27T22:11:41.158Z,17.77
2023-05-27T22:14:07.708Z,17.74
2023-05-27T22:16:34.495Z,17.70
2023-05-27T22:19:01.070Z,17.67
2023-05-27T22:21:29.395Z,17.63
2023-05-27T22:23:56.796Z,17.60
2023-05-27T22:26:23.372Z,17.55
2023-05-27T22:28:49.984Z,17.50
2023-05-27T22:31:16.578Z,17.43
2023-05-27T22:33:43.252Z,17.37
2023-05-27T22:36:09.788Z,17.30
2023-05-27T22:38:36.302Z,17.24
2023-05-27T22:41:02.803Z,17.19
2023-05-27T22:43:29.331Z,17.14
2023-05-27T22:45:55.994Z,17.09
2023-05-27T22:48:22.594Z,17.05
2023-05-27T22:50:49.172Z,17.00
2023-05-27T22:53:15.718Z,16.96
2023-05-27T22:55:42.286Z,16.90
2023-05-27T22:58:08.804Z,16.87
2023-05-27T23:00:35.327Z,16.83
2023-05-27T23:03:01.967Z,16.80
2023-05-27T23:05:28.652Z,16.77
2023-05-27T23:07:55.181Z,16.74
2023-05-27T23:10:21.997Z,16.71
2023-05-27T23:12:48.518Z,16.71
2023-05-27T23:15:15.176Z,16.69
2023-05-27T23:17:41.763Z,16.68
2023-05-27T23:20:08.727Z,16.67
2023-05-27T23:22:35.259Z,16.65
2023-05-27T23:25:01.768Z,16.65
2023-05-27T23:27:28.337Z,16.65
2023-05-27T23:29:54.852Z,16.63
2023-05-27T23:32:21.891Z,16.61
2023-05-27T23:34:48.413Z,16.59
2023-05-27T23:37:14.993Z,16.57
2023-05-27T23:39:41.505Z,16.53
2023-05-27T23:42:08.026Z,16.49
2023-05-27T23:44:34.527Z,16.44
2023-05-27T23:47:01.045Z,16.40
2023-05-27T23:49:27.572Z,16.37
2023-05-27T23:51:54.074Z,16.34
2023-05-27T23:54:20.631Z,16.34
2023-05-27T23:56:47.163Z,16.32
2023-05-27T23:59:13.756Z,16.30
